createdAt,value
2019-03-27T00:01:40.059Z,3.30
2019-03-27T00:04:11.338Z,2.60
2019-03-27T00:06:42.651Z,3.22
2019-03-27T00:09:13.970Z,2.90
2019-03-27T00:11:45.245Z,2.60
2019-03-27T00:14:16.597Z,3.15
2019-03-27T00:16:48.007Z,3.22
2019-03-27T00:19:19.324Z,3.12
2019-03-27T00:21:50.582Z,2.80
2019-03-27T00:24:21.982Z,3.67
2019-03-27T00:26:53.302Z,3.40
2019-03-27T00:29:24.615Z,3.60
2019-03-27T00:31:56.015Z,3.60
2019-03-27T00:34:27.283Z,3.98
2019-03-27T00:36:58.573Z,3.22
2019-03-27T00:39:29.985Z,3.60
2019-03-27T00:42:01.310Z,3.55
2019-03-27T00:44:32.629Z,3.85
2019-03-27T00:47:03.972Z,3.67
2019-03-27T00:49:35.296Z,4.20
2019-03-27T00:52:06.611Z,3.50
2019-03-27T00:54:37.876Z,3.80
2019-03-27T00:57:09.243Z,4.00
2019-03-27T00:59:40.516Z,3.72
2019-03-27T01:02:11.939Z,3.42
2019-03-27T01:04:43.304Z,4.20
2019-03-27T01:07:14.632Z,4.00
2019-03-27T01:09:45.961Z,4.28
2019-03-27T01:12:17.321Z,3.50
2019-03-27T01:14:48.673Z,3.70
2019-03-27T01:17:20.045Z,4.00
2019-03-27T01:19:51.440Z,3.10
2019-03-27T01:22:22.750Z,3.30
2019-03-27T01:24:54.016Z,3.30
2019-03-27T01:27:25.253Z,3.80
2019-03-27T01:29:56.578Z,3.90
2019-03-27T01:32:27.925Z,4.10
2019-03-27T01:34:59.247Z,4.03
2019-03-27T01:37:30.574Z,3.80
2019-03-27T01:40:02.771Z,4.05
2019-03-27T01:42:34.236Z,3.87
2019-03-27T01:45:05.862Z,3.80
2019-03-27T01:47:37.298Z,5.10
2019-03-27T01:50:09.520Z,5.17
2019-03-27T01:52:40.857Z,4.55
2019-03-27T01:55:12.248Z,4.80
2019-03-27T01:57:43.621Z,5.10
2019-03-27T02:00:16.085Z,5.30
2019-03-27T02:02:47.474Z,4.72
2019-03-27T02:05:18.844Z,4.73
2019-03-27T02:07:50.142Z,5.47
2019-03-27T02:10:21.504Z,5.10
2019-03-27T02:12:52.758Z,5.40
2019-03-27T02:15:24.098Z,5.28
2019-03-27T02:17:55.497Z,5.60
2019-03-27T02:20:26.711Z,5.45
2019-03-27T02:22:58.056Z,5.97
2019-03-27T02:25:29.338Z,5.75
2019-03-27T02:28:00.637Z,6.05
2019-03-27T02:30:31.903Z,5.58
2019-03-27T02:33:03.261Z,5.55
2019-03-27T02:35:34.522Z,6.08
2019-03-27T02:38:05.842Z,5.72
2019-03-27T02:40:37.227Z,6.20
2019-03-27T02:43:08.496Z,5.90
2019-03-27T02:45:39.805Z,5.42
2019-03-27T02:48:13.920Z,5.30
2019-03-27T02:50:44.080Z,5.90
2019-03-27T02:53:15.384Z,5.80
2019-03-27T02:55:46.698Z,5.53
2019-03-27T02:58:17.941Z,5.58
2019-03-27T03:00:49.286Z,5.80
2019-03-27T03:03:20.418Z,5.50
2019-03-27T03:05:51.715Z,5.08
2019-03-27T03:08:23.040Z,5.90
2019-03-27T03:10:54.389Z,5.60
2019-03-27T03:13:25.668Z,5.65
2019-03-27T03:15:56.983Z,5.65
2019-03-27T03:18:28.316Z,5.50
2019-03-27T03:20:59.618Z,5.53
2019-03-27T03:23:30.930Z,5.85
2019-03-27T03:26:02.246Z,5.12
2019-03-27T03:28:33.493Z,5.67
2019-03-27T03:31:04.819Z,5.50
2019-03-27T03:33:36.138Z,6.10
2019-03-27T03:36:07.463Z,6.40
2019-03-27T03:38:38.742Z,6.33
2019-03-27T03:41:10.196Z,6.37
2019-03-27T03:43:41.391Z,6.05
2019-03-27T03:46:12.646Z,6.90
2019-03-27T03:48:43.887Z,7.47
2019-03-27T03:51:16.097Z,7.45
2019-03-27T03:53:48.614Z,6.53
2019-03-27T03:56:21.831Z,6.67
2019-03-27T03:58:54.796Z,6.70
2019-03-27T04:01:28.966Z,6.80
2019-03-27T04:04:01.509Z,6.85
2019-03-27T04:06:32.776Z,7.37
2019-03-27T04:09:04.272Z,7.15
2019-03-27T04:11:35.623Z,8.08
2019-03-27T04:14:06.917Z,7.33
2019-03-27T04:16:38.187Z,7.37
2019-03-27T04:19:09.541Z,7.87
2019-03-27T04:21:40.844Z,7.50
2019-03-27T04:24:12.119Z,7.20
2019-03-27T04:26:43.441Z,6.42
2019-03-27T04:29:14.718Z,7.30
2019-03-27T04:31:46.005Z,6.30
2019-03-27T04:34:17.248Z,6.20
2019-03-27T04:36:48.557Z,6.70
2019-03-27T04:39:19.773Z,7.15
2019-03-27T04:41:51.016Z,6.83
2019-03-27T04:44:22.379Z,7.72
2019-03-27T04:46:53.684Z,7.33
2019-03-27T04:49:25.087Z,7.03
2019-03-27T04:51:56.347Z,6.72
2019-03-27T04:54:27.549Z,7.70
2019-03-27T04:56:58.933Z,7.22
2019-03-27T04:59:30.259Z,7.80
2019-03-27T05:02:02.398Z,8.17
2019-03-27T05:04:33.718Z,8.23
2019-03-27T05:07:05.056Z,8.00
2019-03-27T05:09:36.294Z,8.35
2019-03-27T05:12:07.625Z,8.33
2019-03-27T05:14:38.917Z,8.45
2019-03-27T05:17:10.226Z,8.20
2019-03-27T05:19:41.482Z,7.75
2019-03-27T05:22:12.831Z,8.20
2019-03-27T05:24:44.099Z,7.00
2019-03-27T05:27:15.317Z,7.50
2019-03-27T05:29:46.556Z,7.40
2019-03-27T05:32:17.895Z,7.78
2019-03-27T05:34:49.125Z,7.53
2019-03-27T05:37:20.436Z,8.03
2019-03-27T05:39:51.679Z,7.47
2019-03-27T05:42:22.872Z,7.17
2019-03-27T05:44:54.084Z,7.22
2019-03-27T05:47:25.404Z,7.85
2019-03-27T05:49:56.790Z,7.30
2019-03-27T05:52:28.107Z,8.00
2019-03-27T05:54:59.419Z,7.35
2019-03-27T05:57:30.644Z,7.60
2019-03-27T06:00:02.004Z,7.33
2019-03-27T06:02:33.330Z,8.05
2019-03-27T06:05:04.795Z,8.98
2019-03-27T06:07:36.152Z,9.03
2019-03-27T06:10:08.579Z,9.10
2019-03-27T06:12:40.265Z,9.33
2019-03-27T06:15:12.326Z,9.58
2019-03-27T06:17:43.615Z,9.40
2019-03-27T06:20:15.108Z,9.88
2019-03-27T06:22:46.338Z,9.38
2019-03-27T06:25:17.670Z,9.65
2019-03-27T06:27:48.965Z,8.53
2019-03-27T06:30:20.307Z,9.08
2019-03-27T06:32:51.541Z,9.13
2019-03-27T06:35:22.855Z,10.00
2019-03-27T06:37:54.202Z,9.65
2019-03-27T06:40:25.499Z,9.28
2019-03-27T06:42:56.847Z,8.90
2019-03-27T06:48:26.275Z,8.83
2019-03-27T06:50:51.511Z,9.20
2019-03-27T06:53:22.876Z,9.00
2019-03-27T06:55:54.108Z,8.40
2019-03-27T06:58:25.440Z,9.58
2019-03-27T07:00:56.756Z,8.93
2019-03-27T07:03:28.055Z,9.33
2019-03-27T07:05:59.318Z,8.23
2019-03-27T07:08:30.690Z,8.40
2019-03-27T07:11:01.860Z,8.70
2019-03-27T07:13:33.159Z,8.20
2019-03-27T07:16:04.464Z,7.12
2019-03-27T07:18:40.307Z,6.60
2019-03-27T07:21:08.839Z,6.60
2019-03-27T07:23:40.181Z,7.22
2019-03-27T07:26:11.435Z,5.72
2019-03-27T07:28:42.723Z,5.62
2019-03-27T07:31:14.053Z,5.70
2019-03-27T07:33:45.365Z,5.22
2019-03-27T07:36:16.734Z,5.10
2019-03-27T07:38:48.028Z,5.42
2019-03-27T07:41:19.293Z,4.90
2019-03-27T07:43:50.599Z,4.60
2019-03-27T07:46:21.914Z,5.30
2019-03-27T07:48:54.457Z,4.40
2019-03-27T07:51:25.876Z,4.62
2019-03-27T07:53:57.235Z,4.47
2019-03-27T07:56:28.545Z,4.60
2019-03-27T07:58:59.982Z,4.50
2019-03-27T08:01:31.372Z,4.00
2019-03-27T08:04:02.666Z,3.40
2019-03-27T08:06:33.969Z,3.45
2019-03-27T08:09:06.907Z,3.10
2019-03-27T08:11:38.236Z,3.20
2019-03-27T08:14:09.639Z,2.95
2019-03-27T08:16:40.887Z,3.35
2019-03-27T08:19:12.241Z,2.75
2019-03-27T08:21:43.529Z,2.90
2019-03-27T08:24:14.886Z,2.90
2019-03-27T08:26:46.203Z,3.00
2019-03-27T08:29:17.512Z,3.20
2019-03-27T08:31:48.896Z,3.10
2019-03-27T08:37:10.521Z,2.47
2019-03-27T08:39:41.833Z,2.80
2019-03-27T08:42:13.135Z,3.20
2019-03-27T08:44:44.469Z,2.67
2019-03-27T08:47:15.829Z,2.90
2019-03-27T08:49:47.114Z,2.62
2019-03-27T08:52:18.461Z,3.00
2019-03-27T08:54:49.758Z,2.83
2019-03-27T08:57:21.094Z,2.70
2019-03-27T08:59:52.341Z,2.67
2019-03-27T09:02:23.548Z,3.30
2019-03-27T09:04:54.898Z,3.33
2019-03-27T09:07:26.222Z,2.47
2019-03-27T09:09:57.473Z,2.40
2019-03-27T09:12:28.844Z,2.08
2019-03-27T09:15:00.098Z,2.72
2019-03-27T09:17:31.541Z,2.33
2019-03-27T09:20:02.849Z,2.10
2019-03-27T09:22:34.076Z,2.20
2019-03-27T09:25:05.980Z,1.42
2019-03-27T09:27:37.253Z,1.65
2019-03-27T09:30:10.838Z,1.80
2019-03-27T09:32:42.132Z,1.40
2019-03-27T09:35:13.554Z,1.45
2019-03-27T09:37:44.912Z,1.62
2019-03-27T09:40:16.414Z,1.33
2019-03-27T09:42:47.690Z,1.90
2019-03-27T09:45:19.231Z,2.10
2019-03-27T09:47:50.521Z,1.87
2019-03-27T09:50:21.788Z,2.00
2019-03-27T09:52:53.042Z,2.42
2019-03-27T09:55:24.341Z,2.20
2019-03-27T09:57:55.641Z,2.40
2019-03-27T10:01:05.475Z,2.60
2019-03-27T10:03:36.761Z,2.00
2019-03-27T10:06:08.069Z,2.20
2019-03-27T10:08:39.403Z,2.20
2019-03-27T10:11:10.691Z,2.42
2019-03-27T10:13:41.959Z,2.40
2019-03-27T10:16:13.287Z,2.72
2019-03-27T10:18:47.297Z,2.42
2019-03-27T10:21:17.689Z,2.30
2019-03-27T10:23:48.984Z,2.40
2019-03-27T10:26:20.353Z,2.52
2019-03-27T10:28:51.806Z,2.70
2019-03-27T10:31:23.089Z,2.87
2019-03-27T10:33:54.390Z,2.50
2019-03-27T10:36:25.801Z,3.05
2019-03-27T10:38:56.937Z,3.00
2019-03-27T10:41:28.242Z,2.60
2019-03-27T10:43:59.700Z,2.30
2019-03-27T10:46:30.913Z,2.55
2019-03-27T10:49:02.185Z,2.92
2019-03-27T10:51:33.503Z,2.90
2019-03-27T10:54:04.899Z,3.25
2019-03-27T10:56:36.240Z,3.20
2019-03-27T10:59:07.562Z,3.10
2019-03-27T11:01:38.819Z,3.12
2019-03-27T11:04:10.137Z,3.50
2019-03-27T11:06:41.504Z,3.00
2019-03-27T11:09:12.771Z,3.55
2019-03-27T11:11:43.896Z,3.40
2019-03-27T11:14:15.132Z,3.33
2019-03-27T11:16:46.415Z,3.07
2019-03-27T11:19:17.730Z,2.60
2019-03-27T11:21:49.033Z,3.00
2019-03-27T11:24:20.223Z,2.58
2019-03-27T11:26:51.523Z,2.42
2019-03-27T11:29:22.840Z,2.40
2019-03-27T11:31:54.059Z,2.30
2019-03-27T11:34:25.388Z,2.50
2019-03-27T11:36:56.735Z,2.50
2019-03-27T11:39:27.946Z,2.55
2019-03-27T11:42:00.744Z,2.67
2019-03-27T11:44:32.295Z,2.60
2019-03-27T11:47:03.581Z,2.70
2019-03-27T11:49:34.920Z,2.70
2019-03-27T11:52:06.232Z,2.17
2019-03-27T11:54:37.547Z,2.55
2019-03-27T11:57:08.793Z,2.20
2019-03-27T11:59:52.924Z,2.52
2019-03-27T12:02:13.164Z,2.80
2019-03-27T12:04:44.509Z,2.30
2019-03-27T12:07:15.863Z,2.90
2019-03-27T12:09:47.154Z,3.13
2019-03-27T12:12:18.347Z,2.80
2019-03-27T12:14:49.544Z,2.90
2019-03-27T12:17:20.848Z,2.75
2019-03-27T12:19:52.251Z,2.70
2019-03-27T12:22:23.482Z,3.20
2019-03-27T12:24:54.841Z,3.20
2019-03-27T12:27:26.083Z,3.20
2019-03-27T12:29:57.391Z,2.75
2019-03-27T12:32:28.580Z,2.70
2019-03-27T12:34:59.784Z,3.10
2019-03-27T12:37:31.071Z,2.60
2019-03-27T12:40:11.032Z,2.98
2019-03-27T12:42:35.384Z,2.60
2019-03-27T12:45:07.459Z,2.60
2019-03-27T12:47:38.747Z,2.47
2019-03-27T12:50:10.432Z,2.40
2019-03-27T12:52:41.645Z,2.77
2019-03-27T12:55:12.954Z,3.20
2019-03-27T12:57:44.200Z,3.20
2019-03-27T13:00:15.894Z,3.52
2019-03-27T13:02:47.235Z,3.33
2019-03-27T13:05:18.539Z,2.70
2019-03-27T13:07:50.523Z,2.80
2019-03-27T13:10:21.808Z,2.92
2019-03-27T13:12:53.172Z,2.90
2019-03-27T13:15:24.448Z,3.30
2019-03-27T13:17:55.669Z,3.40
2019-03-27T13:20:27.026Z,3.50
2019-03-27T13:22:58.235Z,3.60
2019-03-27T13:25:29.469Z,3.67
2019-03-27T13:28:00.817Z,3.60
2019-03-27T13:30:32.083Z,3.80
2019-03-27T13:33:03.404Z,3.72
2019-03-27T13:35:34.723Z,3.40
2019-03-27T13:38:06.008Z,3.45
2019-03-27T13:40:37.322Z,3.17
2019-03-27T13:43:09.590Z,3.20
2019-03-27T13:45:40.987Z,3.75
2019-03-27T13:48:12.268Z,3.30
2019-03-27T13:50:43.595Z,3.50
2019-03-27T13:53:14.887Z,3.40
2019-03-27T13:55:46.207Z,2.95
2019-03-27T13:58:17.368Z,2.80
2019-03-27T14:00:48.650Z,2.60
2019-03-27T14:03:19.939Z,3.40
2019-03-27T14:05:51.263Z,3.20
2019-03-27T14:08:22.472Z,2.30
2019-03-27T14:10:53.713Z,2.15
2019-03-27T14:13:24.917Z,2.60
2019-03-27T14:15:56.093Z,1.95
2019-03-27T14:18:27.445Z,2.50
2019-03-27T14:20:58.750Z,2.20
2019-03-27T14:23:30.026Z,2.30
2019-03-27T14:26:01.137Z,2.60
2019-03-27T14:28:32.457Z,2.42
2019-03-27T14:31:04.032Z,2.30
2019-03-27T14:33:35.333Z,2.00
2019-03-27T14:36:06.694Z,2.60
2019-03-27T14:38:37.968Z,2.33
2019-03-27T14:41:09.248Z,2.30
2019-03-27T14:43:40.483Z,2.60
2019-03-27T14:46:11.778Z,2.65
2019-03-27T14:48:43.080Z,3.00
2019-03-27T14:51:14.444Z,3.00
2019-03-27T14:53:45.648Z,3.20
2019-03-27T14:56:16.936Z,3.40
2019-03-27T14:58:48.316Z,3.60
2019-03-27T15:01:19.610Z,3.55
2019-03-27T15:03:50.890Z,3.62
2019-03-27T15:06:22.184Z,4.30
2019-03-27T15:08:53.448Z,4.30
2019-03-27T15:11:24.786Z,4.00
2019-03-27T15:13:56.148Z,4.80
2019-03-27T15:16:27.393Z,3.98
2019-03-27T15:18:58.625Z,4.37
2019-03-27T15:21:29.958Z,4.85
2019-03-27T15:24:01.284Z,4.78
2019-03-27T15:26:32.477Z,4.80
2019-03-27T15:29:03.826Z,4.72
2019-03-27T15:31:35.176Z,5.00
2019-03-27T15:34:06.427Z,5.67
2019-03-27T15:36:37.799Z,5.50
2019-03-27T15:39:09.793Z,5.97
2019-03-27T15:41:41.136Z,7.30
2019-03-27T15:44:12.429Z,6.15
2019-03-27T15:46:43.739Z,7.15
2019-03-27T15:49:15.061Z,7.10
2019-03-27T15:51:46.381Z,8.90
2019-03-27T15:54:17.725Z,8.90
2019-03-27T15:56:49.050Z,11.18
2019-03-27T15:59:20.391Z,9.55
2019-03-27T16:01:51.793Z,10.53
2019-03-27T16:04:23.084Z,10.58
2019-03-27T16:06:54.440Z,10.88
2019-03-27T16:09:25.850Z,12.30
2019-03-27T16:11:57.193Z,10.28
2019-03-27T16:14:28.632Z,10.18
2019-03-27T16:17:12.725Z,9.50
2019-03-27T16:19:33.017Z,9.50
2019-03-27T16:22:04.496Z,9.80
2019-03-27T16:24:35.747Z,9.10
2019-03-27T16:27:07.133Z,9.00
2019-03-27T16:29:38.480Z,8.75
2019-03-27T16:32:09.899Z,8.00
2019-03-27T16:34:41.235Z,8.73
2019-03-27T16:37:13.813Z,8.05
2019-03-27T16:39:48.270Z,7.27
2019-03-27T16:42:19.491Z,7.92
2019-03-27T16:44:50.843Z,7.90
2019-03-27T16:47:22.835Z,7.10
2019-03-27T16:49:54.334Z,7.70
2019-03-27T16:52:25.752Z,7.80
2019-03-27T16:54:57.126Z,8.65
2019-03-27T16:57:28.364Z,8.23
2019-03-27T16:59:59.864Z,8.65
2019-03-27T17:02:31.279Z,9.63
2019-03-27T17:05:02.637Z,9.80
2019-03-27T17:07:33.926Z,10.10
2019-03-27T17:10:05.473Z,9.70
2019-03-27T17:12:36.978Z,10.45
2019-03-27T17:15:08.719Z,10.53
2019-03-27T17:17:40.084Z,10.90
2019-03-27T17:20:12.702Z,10.30
2019-03-27T17:22:44.084Z,9.93
2019-03-27T17:25:15.475Z,9.03
2019-03-27T17:27:46.950Z,9.63
2019-03-27T17:30:18.969Z,9.13
2019-03-27T17:32:50.282Z,9.90
2019-03-27T17:35:21.559Z,8.90
2019-03-27T17:37:53.002Z,8.75
2019-03-27T17:40:24.573Z,8.98
2019-03-27T17:42:56.021Z,8.58
2019-03-27T17:45:27.492Z,8.37
2019-03-27T17:47:58.962Z,8.75
2019-03-27T17:50:30.277Z,8.50
2019-03-27T17:53:01.576Z,8.43
2019-03-27T17:55:33.019Z,9.33
2019-03-27T17:58:04.555Z,8.70
2019-03-27T18:00:52.779Z,9.00
2019-03-27T18:03:24.198Z,10.10
2019-03-27T18:05:55.527Z,9.43
2019-03-27T18:08:26.876Z,10.60
2019-03-27T18:10:58.212Z,9.80
2019-03-27T18:13:29.537Z,9.75
2019-03-27T18:16:00.931Z,10.05
2019-03-27T18:18:32.207Z,10.30
2019-03-27T18:21:03.568Z,10.45
2019-03-27T18:23:45.235Z,9.53
2019-03-27T18:26:08.225Z,9.65
2019-03-27T18:28:39.521Z,9.95
2019-03-27T18:31:10.819Z,9.60
2019-03-27T18:33:42.131Z,9.67
2019-03-27T18:36:13.502Z,10.30
2019-03-27T18:38:46.052Z,10.50
2019-03-27T18:41:17.594Z,10.10
2019-03-27T18:43:48.980Z,11.12
2019-03-27T18:46:20.282Z,9.80
2019-03-27T18:48:51.590Z,10.40
2019-03-27T18:51:22.929Z,10.03
2019-03-27T18:53:59.970Z,10.45
2019-03-27T18:59:19.928Z,9.80
2019-03-27T19:01:51.337Z,9.75
2019-03-27T19:04:22.731Z,10.10
2019-03-27T19:06:54.169Z,10.00
2019-03-27T19:09:25.607Z,10.13
2019-03-27T19:11:56.970Z,9.10
2019-03-27T19:14:28.317Z,9.53
2019-03-27T19:16:59.641Z,10.20
2019-03-27T19:19:30.915Z,10.55
2019-03-27T19:22:02.221Z,9.88
2019-03-27T19:24:33.517Z,10.60
2019-03-27T19:27:06.506Z,11.70
2019-03-27T19:29:37.886Z,11.57
2019-03-27T19:32:09.121Z,10.90
2019-03-27T19:34:40.487Z,10.48
2019-03-27T19:37:11.870Z,11.35
2019-03-27T19:39:43.221Z,11.78
2019-03-27T19:42:14.619Z,11.70
2019-03-27T19:44:45.859Z,11.75
2019-03-27T19:47:17.156Z,12.40
2019-03-27T19:49:48.404Z,11.55
2019-03-27T19:52:19.902Z,12.50
2019-03-27T19:54:51.202Z,12.35
2019-03-27T19:57:22.439Z,11.20
2019-03-27T19:59:53.836Z,11.50
2019-03-27T20:02:25.069Z,12.50
2019-03-27T20:04:56.547Z,11.93
2019-03-27T20:07:35.824Z,12.07
2019-03-27T20:10:00.915Z,12.30
2019-03-27T20:12:32.220Z,12.80
2019-03-27T20:15:11.864Z,13.15
2019-03-27T20:17:36.738Z,12.33
2019-03-27T20:20:09.657Z,11.80
2019-03-27T20:22:41.053Z,11.90
2019-03-27T20:25:14.839Z,12.00
2019-03-27T20:27:45.550Z,11.63
2019-03-27T20:30:19.550Z,11.38
2019-03-27T20:32:50.916Z,11.50
2019-03-27T20:35:23.093Z,12.47
2019-03-27T20:37:54.579Z,12.05
2019-03-27T20:40:27.720Z,13.23
2019-03-27T20:42:58.989Z,12.65
2019-03-27T20:45:30.226Z,13.35
2019-03-27T20:48:01.582Z,12.63
2019-03-27T20:50:32.891Z,12.43
2019-03-27T20:53:04.143Z,13.05
2019-03-27T20:55:35.393Z,12.73
2019-03-27T20:58:06.777Z,12.18
2019-03-27T21:00:38.148Z,12.80
2019-03-27T21:03:09.493Z,13.30
2019-03-27T21:05:40.809Z,12.65
2019-03-27T21:08:12.162Z,11.88
2019-03-27T21:10:43.425Z,12.78
2019-03-27T21:13:14.750Z,12.23
2019-03-27T21:15:46.027Z,12.50
2019-03-27T21:18:17.481Z,12.60
2019-03-27T21:20:48.806Z,11.70
2019-03-27T21:23:20.121Z,11.83
2019-03-27T21:25:51.621Z,13.50
2019-03-27T21:28:22.855Z,13.00
2019-03-27T21:30:54.167Z,13.53
2019-03-27T21:33:25.542Z,14.15
2019-03-27T21:35:56.913Z,13.75
2019-03-27T21:38:28.222Z,13.40
2019-03-27T21:40:59.605Z,13.70
2019-03-27T21:43:30.825Z,13.72
2019-03-27T21:46:02.142Z,14.23
2019-03-27T21:48:33.703Z,13.80
2019-03-27T21:51:05.035Z,14.65
2019-03-27T21:53:37.169Z,16.27
2019-03-27T21:56:08.531Z,15.32
2019-03-27T21:58:39.842Z,15.85
2019-03-27T22:01:11.283Z,16.45
2019-03-27T22:03:42.637Z,14.85
2019-03-27T22:06:13.935Z,16.20
2019-03-27T22:08:45.246Z,16.48
2019-03-27T22:11:16.583Z,17.00
2019-03-27T22:13:47.878Z,15.35
2019-03-27T22:16:19.295Z,17.50
2019-03-27T22:18:50.675Z,16.93
2019-03-27T22:21:22.020Z,17.48
2019-03-27T22:23:53.404Z,17.07
2019-03-27T22:26:24.774Z,17.93
2019-03-27T22:28:56.122Z,18.17
2019-03-27T22:31:27.428Z,17.25
2019-03-27T22:33:58.794Z,18.05
2019-03-27T22:36:30.131Z,18.20
2019-03-27T22:39:01.439Z,19.15
2019-03-27T22:41:32.733Z,17.87
2019-03-27T22:44:04.062Z,17.62
2019-03-27T22:46:35.325Z,19.63
2019-03-27T22:49:06.693Z,18.77
2019-03-27T22:51:37.991Z,18.62
2019-03-27T22:54:09.320Z,19.57
2019-03-27T22:56:40.687Z,18.90
2019-03-27T22:59:12.010Z,19.90
2019-03-27T23:01:47.644Z,20.37
2019-03-27T23:04:19.007Z,19.15
2019-03-27T23:06:50.445Z,18.55
2019-03-27T23:09:21.704Z,19.27
2019-03-27T23:11:53.017Z,18.80
2019-03-27T23:14:24.352Z,18.25
2019-03-27T23:16:55.674Z,18.48
2019-03-27T23:19:26.993Z,18.50
2019-03-27T23:21:58.316Z,18.83
2019-03-27T23:24:29.681Z,16.45
2019-03-27T23:27:01.106Z,18.40
2019-03-27T23:29:32.437Z,17.70
2019-03-27T23:32:03.770Z,16.90
2019-03-27T23:34:35.080Z,17.62
2019-03-27T23:37:06.452Z,18.62
2019-03-27T23:39:37.810Z,17.55
2019-03-27T23:42:09.166Z,17.70
2019-03-27T23:44:40.565Z,18.62
2019-03-27T23:47:11.910Z,18.25
2019-03-27T23:49:43.213Z,18.30
2019-03-27T23:52:14.552Z,19.15
2019-03-27T23:54:45.831Z,18.27
2019-03-27T23:57:17.133Z,17.77
2019-03-27T23:59:48.758Z,19.25
